createdAt,value
2022-10-02T00:01:51.110Z,21.97
2022-10-02T00:04:44.745Z,17.53
2022-10-02T00:07:12.949Z,20.03
2022-10-02T00:10:06.762Z,17.40
2022-10-02T00:12:35.818Z,10.27
2022-10-02T00:15:33.361Z,30.30
2022-10-02T00:18:22.389Z,20.23
2022-10-02T00:21:17.986Z,17.57
2022-10-02T00:23:58.841Z,17.97
2022-10-02T00:26:36.733Z,21.33
2022-10-02T00:29:19.846Z,28.70
2022-10-02T00:32:16.707Z,29.30
2022-10-02T00:35:07.739Z,24.83
2022-10-02T00:37:49.301Z,23.70
2022-10-02T00:40:42.809Z,21.20
2022-10-02T00:43:50.952Z,23.00
2022-10-02T00:46:40.730Z,19.03
2022-10-02T00:49:53.645Z,27.83
2022-10-02T00:52:46.886Z,17.73
2022-10-02T00:55:27.713Z,15.80
2022-10-02T00:58:28.362Z,19.73
2022-10-02T01:01:05.726Z,25.23
2022-10-02T01:03:40.853Z,25.57
2022-10-02T01:06:09.058Z,27.03
2022-10-02T01:08:37.301Z,27.63
2022-10-02T01:11:06.247Z,27.33
2022-10-02T01:13:33.117Z,32.97
2022-10-02T01:16:03.287Z,31.90
2022-10-02T01:18:31.041Z,32.93
2022-10-02T01:21:10.642Z,28.73
2022-10-02T01:23:45.565Z,21.77
2022-10-02T01:26:12.148Z,21.07
2022-10-02T01:28:38.921Z,27.63
2022-10-02T01:31:10.513Z,26.37
2022-10-02T01:33:41.473Z,34.27
2022-10-02T01:36:13.562Z,25.10
2022-10-02T01:38:41.347Z,31.17
2022-10-02T01:41:11.451Z,31.93
2022-10-02T01:44:00.418Z,32.43
2022-10-02T01:46:42.131Z,20.23
2022-10-02T01:49:35.581Z,19.07
2022-10-02T01:52:21.038Z,27.77
2022-10-02T01:55:12.179Z,19.27
2022-10-02T01:58:00.522Z,24.57
2022-10-02T02:00:31.228Z,25.40
2022-10-02T02:03:14.197Z,35.03
2022-10-02T02:06:04.786Z,19.40
2022-10-02T02:08:43.127Z,23.67
2022-10-02T02:11:18.728Z,24.77
2022-10-02T02:14:05.937Z,23.97
2022-10-02T02:16:39.069Z,23.90
2022-10-02T02:19:10.752Z,24.13
2022-10-02T02:21:52.766Z,29.30
2022-10-02T02:24:36.194Z,29.23
2022-10-02T02:27:04.173Z,28.10
2022-10-02T02:29:34.582Z,27.27
2022-10-02T02:32:05.903Z,23.90
2022-10-02T02:34:38.433Z,28.83
2022-10-02T02:37:11.493Z,19.27
2022-10-02T02:39:46.008Z,18.73
2022-10-02T02:42:17.958Z,21.93
2022-10-02T02:45:01.417Z,18.37
2022-10-02T02:47:37.853Z,18.67
2022-10-02T02:50:08.233Z,15.73
2022-10-02T02:52:44.754Z,19.23
2022-10-02T02:55:22.692Z,18.93
2022-10-02T02:58:04.137Z,19.10
2022-10-02T03:00:30.778Z,17.53
2022-10-02T03:02:58.378Z,20.83
2022-10-02T03:05:25.594Z,22.53
2022-10-02T03:08:03.229Z,17.47
2022-10-02T03:11:05.380Z,16.20
2022-10-02T03:13:50.201Z,20.17
2022-10-02T03:16:50.593Z,14.50
2022-10-02T03:19:43.816Z,19.27
2022-10-02T03:22:41.118Z,28.00
2022-10-02T03:25:51.973Z,25.50
2022-10-02T03:28:53.935Z,35.40
2022-10-02T03:31:20.068Z,27.23
2022-10-02T03:33:48.356Z,26.60
2022-10-02T03:36:17.905Z,26.27
2022-10-02T03:38:50.067Z,16.77
2022-10-02T03:41:23.781Z,22.27
2022-10-02T03:43:50.442Z,22.13
2022-10-02T03:46:17.039Z,22.30
2022-10-02T03:48:43.836Z,29.03
2022-10-02T03:51:10.353Z,19.07
2022-10-02T03:53:37.086Z,20.47
2022-10-02T03:56:06.655Z,19.20
2022-10-02T03:58:37.699Z,32.20
2022-10-02T04:01:16.772Z,19.63
2022-10-02T04:03:51.741Z,20.43
2022-10-02T04:06:25.204Z,18.87
2022-10-02T04:09:02.849Z,10.63
2022-10-02T04:11:48.332Z,21.40
2022-10-02T04:14:30.132Z,14.53
2022-10-02T04:17:09.850Z,21.80
2022-10-02T04:19:43.342Z,14.53
2022-10-02T04:22:17.161Z,8.70
2022-10-02T04:24:54.788Z,10.67
2022-10-02T04:27:38.855Z,15.30
2022-10-02T04:30:09.781Z,10.07
2022-10-02T04:32:36.869Z,15.30
2022-10-02T04:35:29.098Z,11.83
2022-10-02T04:38:04.481Z,13.03
2022-10-02T04:41:19.959Z,14.67
2022-10-02T04:44:01.239Z,14.23
2022-10-02T04:46:59.167Z,16.80
2022-10-02T04:49:28.515Z,17.90
2022-10-02T04:52:23.531Z,10.47
2022-10-02T04:55:08.694Z,11.33
2022-10-02T04:57:40.977Z,11.70
2022-10-02T05:00:28.748Z,21.20
2022-10-02T05:03:31.015Z,16.03
2022-10-02T05:06:36.123Z,21.17
2022-10-02T05:09:29.498Z,14.07
2022-10-02T05:12:02.278Z,12.10
2022-10-02T05:14:44.345Z,14.20
2022-10-02T05:17:46.066Z,15.60
2022-10-02T05:20:27.935Z,16.57
2022-10-02T05:23:26.004Z,11.10
2022-10-02T05:26:01.442Z,7.67
2022-10-02T05:28:45.869Z,11.03
2022-10-02T05:31:24.334Z,14.03
2022-10-02T05:33:55.841Z,9.97
2022-10-02T05:36:22.365Z,9.30
2022-10-02T05:38:55.050Z,9.67
2022-10-02T05:41:27.778Z,10.97
2022-10-02T05:44:02.729Z,11.73
2022-10-02T05:46:45.810Z,9.07
2022-10-02T05:49:20.351Z,12.73
2022-10-02T05:52:02.934Z,8.90
2022-10-02T05:55:07.597Z,13.07
2022-10-02T05:58:00.778Z,13.50
2022-10-02T06:00:54.533Z,13.30
2022-10-02T06:03:43.489Z,8.23
2022-10-02T06:06:20.272Z,12.77
2022-10-02T06:08:53.758Z,11.97
2022-10-02T06:11:24.013Z,10.43
2022-10-02T06:13:58.056Z,10.00
2022-10-02T06:16:32.963Z,11.47
2022-10-02T06:19:19.362Z,6.87
2022-10-02T06:22:12.264Z,11.60
2022-10-02T06:24:57.017Z,13.00
2022-10-02T06:27:43.124Z,13.43
2022-10-02T06:30:13.235Z,10.00
2022-10-02T06:33:04.320Z,13.63
2022-10-02T06:36:13.770Z,5.77
2022-10-02T06:39:02.129Z,13.23
2022-10-02T06:41:54.100Z,11.73
2022-10-02T06:44:49.575Z,12.63
2022-10-02T06:47:41.013Z,10.83
2022-10-02T06:50:19.567Z,6.53
2022-10-02T06:53:24.019Z,7.97
2022-10-02T06:56:13.262Z,10.60
2022-10-02T06:58:46.151Z,11.40
2022-10-02T07:01:42.630Z,13.37
2022-10-02T07:04:51.612Z,11.17
2022-10-02T07:07:29.876Z,11.17
2022-10-02T07:10:02.723Z,8.80
2022-10-02T07:12:48.019Z,7.40
2022-10-02T07:15:39.202Z,7.10
2022-10-02T07:18:19.443Z,7.77
2022-10-02T07:21:06.547Z,11.30
2022-10-02T07:24:02.614Z,10.70
2022-10-02T07:26:53.913Z,5.83
2022-10-02T07:29:40.975Z,7.83
2022-10-02T07:32:11.604Z,6.00
2022-10-02T07:34:51.883Z,6.70
2022-10-02T07:37:38.337Z,7.80
2022-10-02T07:40:31.075Z,6.20
2022-10-02T07:43:34.498Z,5.73
2022-10-02T07:46:26.210Z,9.53
2022-10-02T07:48:58.605Z,9.40
2022-10-02T07:51:50.332Z,8.40
2022-10-02T07:54:51.618Z,7.53
2022-10-02T07:57:37.792Z,10.17
2022-10-02T08:00:16.627Z,5.27
2022-10-02T08:02:59.012Z,11.83
2022-10-02T08:05:47.482Z,9.70
2022-10-02T08:08:23.434Z,8.23
2022-10-02T08:10:56.465Z,10.73
2022-10-02T08:13:36.015Z,10.03
2022-10-02T08:16:06.643Z,6.63
2022-10-02T08:18:49.184Z,6.70
2022-10-02T08:21:20.049Z,6.77
2022-10-02T08:23:56.586Z,8.50
2022-10-02T08:26:52.317Z,10.50
2022-10-02T08:29:41.724Z,7.90
2022-10-02T08:32:13.622Z,8.63
2022-10-02T08:34:41.571Z,7.73
2022-10-02T08:37:25.430Z,9.70
2022-10-02T08:39:57.866Z,7.13
2022-10-02T08:42:27.430Z,7.33
2022-10-02T08:45:18.690Z,9.13
2022-10-02T08:48:06.225Z,8.33
2022-10-02T08:51:03.761Z,8.00
2022-10-02T08:53:59.748Z,5.57
2022-10-02T08:56:49.105Z,8.87
2022-10-02T08:59:34.230Z,5.93
2022-10-02T09:02:34.992Z,7.60
2022-10-02T09:05:29.732Z,7.40
2022-10-02T09:08:14.884Z,5.43
2022-10-02T09:10:50.515Z,7.90
2022-10-02T09:13:48.482Z,4.37
2022-10-02T09:16:30.167Z,6.77
2022-10-02T09:19:02.774Z,5.43
2022-10-02T09:21:51.543Z,5.57
2022-10-02T09:24:40.952Z,7.43
2022-10-02T09:27:10.233Z,5.67
2022-10-02T09:30:14.664Z,5.97
2022-10-02T09:33:11.671Z,6.20
2022-10-02T09:36:10.831Z,9.80
2022-10-02T09:39:15.333Z,5.50
2022-10-02T09:42:19.906Z,6.53
2022-10-02T09:44:49.454Z,6.17
2022-10-02T09:47:40.441Z,4.83
2022-10-02T09:50:28.878Z,8.03
2022-10-02T09:52:55.618Z,8.60
2022-10-02T09:56:04.220Z,7.57
2022-10-02T09:58:36.565Z,6.10
2022-10-02T10:01:25.486Z,5.53
2022-10-02T10:04:19.317Z,7.33
2022-10-02T10:07:17.283Z,6.50
2022-10-02T10:09:51.462Z,5.63
2022-10-02T10:12:49.960Z,4.67
2022-10-02T10:15:49.154Z,7.17
2022-10-02T10:18:16.999Z,5.57
2022-10-02T10:21:00.130Z,4.70
2022-10-02T10:23:36.340Z,10.03
2022-10-02T10:26:40.331Z,5.67
2022-10-02T10:29:50.653Z,13.33
2022-10-02T10:32:54.412Z,8.17
2022-10-02T10:35:32.014Z,9.53
2022-10-02T10:38:33.088Z,4.63
2022-10-02T10:41:21.394Z,6.67
2022-10-02T10:43:59.781Z,7.20
2022-10-02T10:46:59.361Z,8.00
2022-10-02T10:49:31.724Z,6.27
2022-10-02T10:52:16.114Z,5.80
2022-10-02T10:55:01.674Z,6.13
2022-10-02T10:57:47.852Z,8.70
2022-10-02T11:00:20.491Z,5.90
2022-10-02T11:03:16.073Z,6.20
2022-10-02T11:06:29.994Z,8.30
2022-10-02T11:09:08.517Z,6.67
2022-10-02T11:12:09.675Z,5.97
2022-10-02T11:15:00.536Z,9.03
2022-10-02T11:18:06.650Z,5.67
2022-10-02T11:20:54.451Z,7.53
2022-10-02T11:23:37.811Z,8.40
2022-10-02T11:26:16.261Z,5.17
2022-10-02T11:29:12.428Z,10.67
2022-10-02T11:31:41.946Z,7.10
2022-10-02T11:34:42.554Z,8.90
2022-10-02T11:37:30.879Z,7.77
2022-10-02T11:40:32.431Z,7.97
2022-10-02T11:43:24.240Z,5.37
2022-10-02T11:46:21.481Z,5.47
2022-10-02T11:48:59.930Z,6.73
2022-10-02T11:51:50.849Z,8.87
2022-10-02T11:54:55.572Z,3.77
2022-10-02T11:57:34.565Z,14.33
2022-10-02T12:00:35.935Z,5.57
2022-10-02T12:03:16.170Z,8.80
2022-10-02T12:05:55.572Z,8.27
2022-10-02T12:08:31.936Z,5.53
2022-10-02T12:11:33.095Z,4.50
2022-10-02T12:14:08.646Z,9.20
2022-10-02T12:17:07.215Z,6.03
2022-10-02T12:19:36.773Z,6.87
2022-10-02T12:22:33.801Z,8.67
2022-10-02T12:25:31.904Z,5.97
2022-10-02T12:28:10.529Z,9.93
2022-10-02T12:30:47.632Z,5.27
2022-10-02T12:34:06.847Z,5.53
2022-10-02T12:37:11.938Z,7.03
2022-10-02T12:39:44.622Z,10.07
2022-10-02T12:42:40.420Z,8.63
2022-10-02T12:45:20.403Z,6.30
2022-10-02T12:48:07.266Z,8.43
2022-10-02T12:51:07.059Z,12.27
2022-10-02T12:53:57.307Z,10.27
2022-10-02T12:56:46.129Z,11.73
2022-10-02T12:59:23.122Z,15.00
2022-10-02T13:02:59.931Z,9.80
2022-10-02T13:06:03.672Z,7.63
2022-10-02T13:08:50.460Z,10.13
2022-10-02T13:11:46.894Z,8.83
2022-10-02T13:14:29.605Z,9.43
2022-10-02T13:17:10.715Z,8.60
2022-10-02T13:19:46.116Z,5.00
2022-10-02T13:22:25.042Z,5.03
2022-10-02T13:25:10.205Z,8.67
2022-10-02T13:27:49.321Z,9.37
2022-10-02T13:30:23.895Z,11.47
2022-10-02T13:32:59.595Z,6.40
2022-10-02T13:35:44.285Z,6.47
2022-10-02T13:38:20.720Z,4.77
2022-10-02T13:41:15.611Z,5.57
2022-10-02T13:44:04.543Z,5.57
2022-10-02T13:46:47.210Z,8.13
2022-10-02T13:49:31.654Z,9.60
2022-10-02T13:52:29.153Z,8.60
2022-10-02T13:55:21.827Z,8.50
2022-10-02T13:58:16.161Z,8.03
2022-10-02T14:00:45.525Z,8.13
2022-10-02T14:03:41.621Z,9.30
2022-10-02T14:06:20.366Z,8.27
2022-10-02T14:09:14.630Z,5.20
2022-10-02T14:11:56.568Z,7.60
2022-10-02T14:14:43.499Z,7.07
2022-10-02T14:17:35.775Z,8.90
2022-10-02T14:20:26.912Z,11.93
2022-10-02T14:23:25.617Z,7.23
2022-10-02T14:26:14.294Z,7.30
2022-10-02T14:28:50.873Z,6.90
2022-10-02T14:31:54.640Z,8.17
2022-10-02T14:34:43.070Z,6.17
2022-10-02T14:37:47.503Z,7.93
2022-10-02T14:40:19.390Z,8.50
2022-10-02T14:43:10.657Z,7.77
2022-10-02T14:46:03.059Z,6.70
2022-10-02T14:48:54.117Z,9.27
2022-10-02T14:52:01.615Z,9.87
2022-10-02T14:54:38.096Z,8.60
2022-10-02T14:57:24.426Z,7.43
2022-10-02T15:00:16.983Z,6.27
2022-10-02T15:03:27.726Z,8.73
2022-10-02T15:06:15.626Z,6.03
2022-10-02T15:08:49.944Z,8.03
2022-10-02T15:11:44.497Z,6.33
2022-10-02T15:14:28.516Z,7.13
2022-10-02T15:17:24.538Z,10.77
2022-10-02T15:20:06.223Z,11.93
2022-10-02T15:22:49.203Z,9.20
2022-10-02T15:25:28.694Z,9.70
2022-10-02T15:28:34.693Z,6.80
2022-10-02T15:31:11.681Z,7.13
2022-10-02T15:33:52.426Z,6.23
2022-10-02T15:36:27.813Z,11.67
2022-10-02T15:38:57.107Z,9.83
2022-10-02T15:41:48.161Z,10.13
2022-10-02T15:44:42.362Z,12.97
2022-10-02T15:47:29.596Z,9.57
2022-10-02T15:49:56.373Z,5.03
2022-10-02T15:52:41.770Z,7.20
2022-10-02T15:55:38.751Z,7.87
2022-10-02T15:58:20.266Z,7.33
2022-10-02T16:01:02.414Z,8.80
2022-10-02T16:03:50.843Z,9.90
2022-10-02T16:06:35.913Z,9.40
2022-10-02T16:09:41.127Z,10.27
2022-10-02T16:12:29.674Z,8.10
2022-10-02T16:15:25.426Z,5.78
2022-10-02T16:18:19.329Z,8.98
2022-10-02T16:21:25.970Z,14.43
2022-10-02T16:24:10.628Z,7.05
2022-10-02T16:26:58.986Z,11.43
2022-10-02T16:29:28.781Z,13.13
2022-10-02T16:32:10.675Z,9.17
2022-10-02T16:34:59.527Z,8.63
2022-10-02T16:37:54.905Z,9.50
2022-10-02T16:40:23.175Z,10.10
2022-10-02T16:43:21.354Z,9.30
2022-10-02T16:46:09.701Z,11.03
2022-10-02T16:48:42.923Z,11.57
2022-10-02T16:51:51.773Z,10.23
2022-10-02T16:54:39.173Z,10.47
2022-10-02T16:57:32.663Z,9.47
2022-10-02T17:00:22.754Z,14.23
2022-10-02T17:03:04.296Z,11.57
2022-10-02T17:05:49.835Z,11.47
2022-10-02T17:08:22.153Z,11.67
2022-10-02T17:11:16.887Z,13.33
2022-10-02T17:14:09.495Z,16.50
2022-10-02T17:17:00.343Z,11.40
2022-10-02T17:19:51.068Z,20.83
2022-10-02T17:22:43.924Z,14.17
2022-10-02T17:25:16.233Z,15.10
2022-10-02T17:27:56.454Z,20.57
2022-10-02T17:30:27.175Z,15.97
2022-10-02T17:33:13.229Z,20.33
2022-10-02T17:35:57.128Z,18.23
2022-10-02T17:38:58.067Z,16.73
2022-10-02T17:41:24.604Z,15.73
2022-10-02T17:44:05.920Z,22.53
2022-10-02T17:46:49.630Z,20.23
2022-10-02T17:49:42.493Z,17.67
2022-10-02T17:53:06.877Z,22.37
2022-10-02T17:56:17.076Z,19.57
2022-10-02T17:58:56.111Z,20.97
2022-10-02T18:01:36.605Z,16.47
2022-10-02T18:04:11.564Z,16.37
2022-10-02T18:06:41.903Z,14.47
2022-10-02T18:09:18.334Z,18.27
2022-10-02T18:12:08.265Z,19.97
2022-10-02T18:14:45.016Z,17.17
2022-10-02T18:17:26.794Z,14.63
2022-10-02T18:20:23.780Z,17.37
2022-10-02T18:23:01.437Z,11.37
2022-10-02T18:25:44.507Z,18.83
2022-10-02T18:28:25.880Z,18.50
2022-10-02T18:31:44.409Z,20.07
2022-10-02T18:34:17.924Z,20.60
2022-10-02T18:37:02.849Z,12.47
2022-10-02T18:40:04.880Z,16.43
2022-10-02T18:42:48.298Z,19.20
2022-10-02T18:45:30.202Z,18.53
2022-10-02T18:48:35.870Z,11.17
2022-10-02T18:51:05.427Z,19.33
2022-10-02T18:53:57.969Z,16.17
2022-10-02T18:56:51.494Z,19.90
2022-10-02T18:59:36.970Z,13.67
2022-10-02T19:02:36.719Z,16.57
2022-10-02T19:05:23.245Z,18.67
2022-10-02T19:08:03.423Z,11.73
2022-10-02T19:10:40.813Z,14.73
2022-10-02T19:13:17.641Z,13.60
2022-10-02T19:15:46.932Z,18.23
2022-10-02T19:18:20.480Z,15.90
2022-10-02T19:20:53.634Z,22.63
2022-10-02T19:23:47.407Z,26.73
2022-10-02T19:26:32.987Z,20.00
2022-10-02T19:29:05.085Z,19.87
2022-10-02T19:31:36.245Z,23.20
2022-10-02T19:34:10.652Z,19.23
2022-10-02T19:36:42.748Z,20.87
2022-10-02T19:39:20.139Z,20.00
2022-10-02T19:41:47.233Z,20.23
2022-10-02T19:44:25.271Z,9.33
2022-10-02T19:46:54.359Z,20.77
2022-10-02T19:49:29.919Z,15.47
2022-10-02T19:51:57.306Z,15.40
2022-10-02T19:54:36.305Z,13.17
2022-10-02T19:57:14.948Z,22.93
2022-10-02T19:59:47.435Z,18.13
2022-10-02T20:02:32.545Z,23.00
2022-10-02T20:05:02.515Z,20.13
2022-10-02T20:07:33.796Z,20.63
2022-10-02T20:10:09.122Z,15.47
2022-10-02T20:12:40.564Z,14.67
2022-10-02T20:15:41.754Z,15.73
2022-10-02T20:18:09.107Z,14.93
2022-10-02T20:20:37.790Z,16.43
2022-10-02T20:23:07.769Z,16.03
2022-10-02T20:25:46.113Z,20.47
2022-10-02T20:28:15.917Z,16.10
2022-10-02T20:30:54.196Z,20.10
2022-10-02T20:33:34.706Z,17.00
2022-10-02T20:36:14.188Z,14.90
2022-10-02T20:38:46.779Z,21.77
2022-10-02T20:41:36.187Z,27.90
2022-10-02T20:44:06.105Z,16.50
2022-10-02T20:47:04.625Z,18.03
2022-10-02T20:49:52.754Z,19.53
2022-10-02T20:52:57.693Z,16.07
2022-10-02T20:55:50.468Z,22.97
2022-10-02T20:58:31.190Z,17.93
2022-10-02T21:01:06.999Z,21.30
2022-10-02T21:03:52.450Z,23.20
2022-10-02T21:06:38.122Z,18.87
2022-10-02T21:09:29.074Z,20.93
2022-10-02T21:12:19.830Z,20.30
2022-10-02T21:14:46.382Z,14.93
2022-10-02T21:18:00.948Z,24.73
2022-10-02T21:20:50.705Z,22.47
2022-10-02T21:23:32.011Z,16.67
2022-10-02T21:26:26.869Z,23.33
2022-10-02T21:29:08.706Z,21.77
2022-10-02T21:32:06.523Z,25.77
2022-10-02T21:34:50.765Z,21.17
2022-10-02T21:37:36.177Z,16.67
2022-10-02T21:40:23.774Z,15.50
2022-10-02T21:43:36.004Z,21.07
2022-10-02T21:46:28.923Z,26.13
2022-10-02T21:49:33.630Z,24.30
2022-10-02T21:52:39.798Z,23.83
2022-10-02T21:55:21.709Z,12.80
2022-10-02T21:58:15.068Z,14.23
2022-10-02T22:01:18.959Z,23.20
2022-10-02T22:04:04.058Z,17.93
2022-10-02T22:06:43.399Z,14.67
2022-10-02T22:09:33.574Z,25.37
2022-10-02T22:12:11.716Z,23.13
2022-10-02T22:14:49.654Z,19.10
2022-10-02T22:17:34.603Z,24.23
2022-10-02T22:20:39.346Z,23.27
2022-10-02T22:23:48.409Z,22.50
2022-10-02T22:26:41.489Z,26.13
2022-10-02T22:29:19.563Z,13.60
2022-10-02T22:32:34.239Z,18.73
2022-10-02T22:35:17.462Z,21.63
2022-10-02T22:37:54.202Z,22.37
2022-10-02T22:40:25.842Z,18.97
2022-10-02T22:43:06.870Z,20.43
2022-10-02T22:45:49.985Z,21.67
2022-10-02T22:48:27.648Z,20.30
2022-10-02T22:51:00.877Z,24.23
2022-10-02T22:53:37.667Z,25.37
2022-10-02T22:56:22.715Z,24.80
2022-10-02T22:59:13.541Z,26.57
2022-10-02T23:01:44.537Z,19.43
2022-10-02T23:04:36.287Z,25.37
2022-10-02T23:07:32.670Z,23.33
2022-10-02T23:10:25.757Z,30.60
2022-10-02T23:13:05.884Z,21.20
2022-10-02T23:15:53.643Z,20.20
2022-10-02T23:18:26.043Z,24.97
2022-10-02T23:21:02.687Z,29.37
2022-10-02T23:23:50.818Z,24.27
2022-10-02T23:26:46.111Z,19.87
2022-10-02T23:29:18.461Z,33.97
2022-10-02T23:32:02.982Z,24.80
2022-10-02T23:34:43.685Z,19.67
2022-10-02T23:37:18.902Z,25.93
2022-10-02T23:40:05.677Z,22.00
2022-10-02T23:42:42.350Z,28.83
2022-10-02T23:45:21.127Z,24.43
2022-10-02T23:48:04.169Z,32.43
2022-10-02T23:50:58.984Z,24.23
2022-10-02T23:53:37.445Z,28.63
2022-10-02T23:56:22.385Z,27.67
2022-10-02T23:59:01.932Z,29.10
